createdAt,value
2023-05-16T00:00:55.391Z,24.02
2023-05-16T00:01:55.493Z,24.02
2023-05-16T00:02:55.430Z,24.03
2023-05-16T00:03:55.559Z,24.02
2023-05-16T00:04:55.367Z,24.02
2023-05-16T00:05:55.368Z,24.02
2023-05-16T00:06:55.372Z,24.02
2023-05-16T00:07:55.397Z,24.01
2023-05-16T00:08:55.449Z,24.02
2023-05-16T00:09:55.495Z,24.01
2023-05-16T00:10:55.584Z,24.01
2023-05-16T00:11:55.629Z,24.02
2023-05-16T00:12:55.688Z,24.01
2023-05-16T00:13:55.768Z,24.01
2023-05-16T00:14:55.815Z,24.01
2023-05-16T00:15:55.810Z,24.01
2023-05-16T00:16:55.841Z,24.01
2023-05-16T00:17:55.911Z,24.01
2023-05-16T00:18:55.920Z,24.01
2023-05-16T00:19:55.949Z,24.01
2023-05-16T00:20:55.975Z,24.00
2023-05-16T00:21:56.058Z,24.01
2023-05-16T00:22:56.071Z,24.01
2023-05-16T00:23:56.099Z,24.00
2023-05-16T00:24:56.151Z,24.00
2023-05-16T00:25:56.234Z,24.00
2023-05-16T00:26:56.296Z,24.00
2023-05-16T00:27:56.409Z,24.00
2023-05-16T00:28:56.415Z,24.00
2023-05-16T00:29:56.421Z,24.00
2023-05-16T00:30:56.420Z,24.00
2023-05-16T00:31:56.479Z,23.99
2023-05-16T00:32:56.550Z,24.00
2023-05-16T00:33:56.556Z,24.00
2023-05-16T00:34:56.508Z,24.00
2023-05-16T00:35:56.622Z,23.99
2023-05-16T00:36:56.641Z,23.99
2023-05-16T00:37:56.722Z,23.99
2023-05-16T00:38:56.785Z,23.99
2023-05-16T00:39:56.849Z,24.00
2023-05-16T00:40:56.896Z,23.99
2023-05-16T00:41:56.955Z,23.99
2023-05-16T00:42:57.021Z,23.99
2023-05-16T00:43:57.039Z,23.99
2023-05-16T00:44:57.099Z,23.99
2023-05-16T00:45:57.205Z,23.98
2023-05-16T00:46:57.265Z,23.98
2023-05-16T00:47:57.316Z,23.99
2023-05-16T00:48:57.248Z,23.99
2023-05-16T00:49:57.280Z,23.98
2023-05-16T00:50:57.286Z,23.98
2023-05-16T00:51:57.291Z,23.98
2023-05-16T00:52:57.294Z,23.98
2023-05-16T00:53:57.356Z,23.98
2023-05-16T00:54:57.311Z,23.98
2023-05-16T00:55:57.291Z,23.98
2023-05-16T00:56:57.294Z,23.97
2023-05-16T00:57:57.287Z,23.97
2023-05-16T00:58:57.340Z,23.98
2023-05-16T00:59:57.354Z,23.97
2023-05-16T01:00:57.417Z,23.97
2023-05-16T01:01:57.658Z,23.97
2023-05-16T01:02:57.635Z,23.97
2023-05-16T01:03:57.879Z,23.96
2023-05-16T01:04:57.699Z,23.98
2023-05-16T01:05:57.727Z,23.96
2023-05-16T01:06:57.788Z,23.97
2023-05-16T01:07:57.862Z,23.96
2023-05-16T01:08:57.915Z,23.97
2023-05-16T01:09:57.976Z,23.96
2023-05-16T01:10:58.033Z,23.97
2023-05-16T01:11:58.094Z,23.96
2023-05-16T01:12:58.094Z,23.96
2023-05-16T01:13:58.157Z,23.96
2023-05-16T01:14:58.172Z,23.96
2023-05-16T01:15:58.264Z,23.96
2023-05-16T01:16:58.193Z,23.96
2023-05-16T01:17:58.298Z,23.95
2023-05-16T01:18:58.389Z,23.95
2023-05-16T01:19:58.318Z,23.95
2023-05-16T01:20:58.343Z,23.96
2023-05-16T01:21:58.423Z,23.95
2023-05-16T01:22:58.432Z,23.95
2023-05-16T01:23:58.472Z,23.95
2023-05-16T01:24:58.483Z,23.94
2023-05-16T01:25:58.566Z,23.96
2023-05-16T01:26:58.602Z,23.95
2023-05-16T01:27:58.616Z,23.95
2023-05-16T01:28:58.676Z,23.95
2023-05-16T01:29:58.724Z,23.95
2023-05-16T01:30:58.741Z,23.94
2023-05-16T01:31:58.882Z,23.94
2023-05-16T01:32:58.820Z,23.94
2023-05-16T01:33:58.814Z,23.94
2023-05-16T01:34:58.850Z,23.93
2023-05-16T01:35:58.851Z,23.94
2023-05-16T01:36:58.865Z,23.95
2023-05-16T01:37:58.908Z,23.94
2023-05-16T01:38:58.896Z,23.93
2023-05-16T01:39:58.918Z,23.94
2023-05-16T01:40:58.865Z,23.94
2023-05-16T01:41:58.903Z,23.93
2023-05-16T01:42:58.911Z,23.93
2023-05-16T01:43:58.896Z,23.93
2023-05-16T01:44:58.941Z,23.94
2023-05-16T01:45:58.920Z,23.93
2023-05-16T01:46:58.988Z,23.94
2023-05-16T01:47:58.999Z,23.93
2023-05-16T01:48:58.950Z,23.93
2023-05-16T01:49:59.014Z,23.93
2023-05-16T01:50:59.970Z,23.93
2023-05-16T01:51:59.027Z,23.93
2023-05-16T01:52:59.050Z,23.93
2023-05-16T01:53:59.061Z,23.92
2023-05-16T01:54:59.119Z,23.92
2023-05-16T01:55:59.216Z,23.92
2023-05-16T01:56:59.148Z,23.92
2023-05-16T01:57:59.185Z,23.92
2023-05-16T01:58:59.218Z,23.91
2023-05-16T01:59:59.290Z,23.92
2023-05-16T02:00:59.287Z,23.92
2023-05-16T02:01:59.360Z,23.91
2023-05-16T02:02:59.391Z,23.91
2023-05-16T02:03:59.441Z,23.92
2023-05-16T02:04:59.431Z,23.91
2023-05-16T02:05:59.486Z,23.92
2023-05-16T02:06:59.493Z,23.91
2023-05-16T02:07:59.535Z,23.91
2023-05-16T02:08:59.504Z,23.91
2023-05-16T02:09:59.516Z,23.91
2023-05-16T02:10:59.529Z,23.91
2023-05-16T02:11:59.578Z,23.91
2023-05-16T02:12:59.570Z,23.91
2023-05-16T02:13:59.569Z,23.90
2023-05-16T02:14:59.595Z,23.90
2023-05-16T02:15:59.602Z,23.90
2023-05-16T02:16:59.627Z,23.90
2023-05-16T02:17:59.669Z,23.91
2023-05-16T02:18:59.639Z,23.90
2023-05-16T02:19:59.627Z,23.91
2023-05-16T02:20:59.636Z,23.91
2023-05-16T02:21:59.618Z,23.91
2023-05-16T02:22:59.638Z,23.91
2023-05-16T02:23:59.661Z,23.90
2023-05-16T02:24:59.702Z,23.90
2023-05-16T02:25:59.671Z,23.90
2023-05-16T02:26:59.657Z,23.89
2023-05-16T02:27:59.690Z,23.90
2023-05-16T02:28:59.671Z,23.90
2023-05-16T02:29:59.644Z,23.90
2023-05-16T02:30:59.697Z,23.89
2023-05-16T02:31:59.700Z,23.89
2023-05-16T02:32:59.779Z,23.88
2023-05-16T02:33:59.667Z,23.89
2023-05-16T02:34:59.711Z,23.89
2023-05-16T02:36:00.033Z,23.89
2023-05-16T02:36:59.695Z,23.88
2023-05-16T02:37:59.713Z,23.89
2023-05-16T02:38:59.700Z,23.89
2023-05-16T02:39:59.693Z,23.89
2023-05-16T02:40:59.726Z,23.89
2023-05-16T02:41:59.729Z,23.89
2023-05-16T02:42:59.724Z,23.88
2023-05-16T02:43:59.726Z,23.88
2023-05-16T02:44:59.825Z,23.88
2023-05-16T02:45:59.835Z,23.88
2023-05-16T02:46:59.818Z,23.88
2023-05-16T02:47:59.885Z,23.88
2023-05-16T02:48:59.847Z,23.88
2023-05-16T02:49:59.819Z,23.87
2023-05-16T02:50:59.826Z,23.88
2023-05-16T02:51:59.861Z,23.87
2023-05-16T02:52:59.875Z,23.88
2023-05-16T02:53:59.901Z,23.87
2023-05-16T02:55:20.297Z,23.87
2023-05-16T02:56:00.853Z,23.87
2023-05-16T02:56:59.871Z,23.87
2023-05-16T02:57:59.832Z,23.87
2023-05-16T02:58:59.818Z,23.87
2023-05-16T02:59:59.830Z,23.87
2023-05-16T03:00:59.827Z,23.87
2023-05-16T03:01:59.857Z,23.87
2023-05-16T03:02:59.869Z,23.87
2023-05-16T03:03:59.892Z,23.87
2023-05-16T03:04:59.796Z,23.87
2023-05-16T03:05:59.752Z,23.86
2023-05-16T03:06:59.759Z,23.87
2023-05-16T03:07:59.778Z,23.86
2023-05-16T03:08:59.752Z,23.87
2023-05-16T03:09:59.722Z,23.86
2023-05-16T03:10:59.710Z,23.86
2023-05-16T03:11:59.714Z,23.86
2023-05-16T03:12:59.719Z,23.86
2023-05-16T03:14:01.549Z,23.85
2023-05-16T03:14:59.724Z,23.86
2023-05-16T03:15:59.724Z,23.86
2023-05-16T03:16:59.692Z,23.86
2023-05-16T03:17:59.751Z,23.85
2023-05-16T03:18:59.779Z,23.86
2023-05-16T03:19:59.644Z,23.86
2023-05-16T03:20:59.656Z,23.86
2023-05-16T03:21:59.662Z,23.86
2023-05-16T03:22:59.632Z,23.86
2023-05-16T03:23:59.712Z,23.86
2023-05-16T03:24:59.612Z,23.85
2023-05-16T03:25:59.621Z,23.85
2023-05-16T03:26:59.635Z,23.85
2023-05-16T03:27:59.593Z,23.85
2023-05-16T03:28:59.604Z,23.85
2023-05-16T03:29:59.575Z,23.85
2023-05-16T03:30:59.584Z,23.85
2023-05-16T03:31:59.635Z,23.84
2023-05-16T03:32:59.563Z,23.84
2023-05-16T03:33:59.603Z,23.85
2023-05-16T03:34:59.586Z,23.85
2023-05-16T03:35:59.554Z,23.84
2023-05-16T03:36:59.557Z,23.84
2023-05-16T03:37:59.570Z,23.84
2023-05-16T03:38:59.532Z,23.84
2023-05-16T03:39:59.571Z,23.84
2023-05-16T03:40:59.517Z,23.83
2023-05-16T03:41:59.573Z,23.84
2023-05-16T03:42:59.529Z,23.84
2023-05-16T03:43:59.528Z,23.84
2023-05-16T03:44:59.539Z,23.85
2023-05-16T03:45:59.607Z,23.84
2023-05-16T03:46:59.542Z,23.84
2023-05-16T03:47:59.665Z,23.83
2023-05-16T03:48:59.540Z,23.83
2023-05-16T03:49:59.552Z,23.83
2023-05-16T03:50:59.559Z,23.84
2023-05-16T03:51:59.570Z,23.84
2023-05-16T03:52:59.577Z,23.83
2023-05-16T03:53:59.564Z,23.83
2023-05-16T03:54:59.514Z,23.83
2023-05-16T03:55:59.535Z,23.84
2023-05-16T03:56:59.525Z,23.83
2023-05-16T03:57:59.530Z,23.82
2023-05-16T03:58:59.576Z,23.84
2023-05-16T03:59:59.576Z,23.83
2023-05-16T04:00:59.645Z,23.83
2023-05-16T04:01:59.637Z,23.83
2023-05-16T04:02:59.656Z,23.82
2023-05-16T04:03:59.639Z,23.83
2023-05-16T04:04:59.650Z,23.82
2023-05-16T04:05:59.696Z,23.82
2023-05-16T04:06:59.695Z,23.82
2023-05-16T04:07:59.666Z,23.83
2023-05-16T04:08:59.695Z,23.83
2023-05-16T04:09:59.705Z,23.83
2023-05-16T04:10:59.762Z,23.83
2023-05-16T04:11:59.735Z,23.84
2023-05-16T04:12:59.762Z,23.83
2023-05-16T04:13:59.836Z,23.82
2023-05-16T04:14:59.854Z,23.82
2023-05-16T04:15:59.796Z,23.81
2023-05-16T04:16:59.868Z,23.81
2023-05-16T04:17:59.844Z,23.82
2023-05-16T04:18:59.830Z,23.80
2023-05-16T04:19:59.756Z,23.79
2023-05-16T04:20:59.822Z,23.81
2023-05-16T04:21:59.772Z,23.80
2023-05-16T04:22:59.741Z,23.79
2023-05-16T04:23:59.749Z,23.78
2023-05-16T04:24:59.791Z,23.78
2023-05-16T04:25:59.756Z,23.78
2023-05-16T04:26:59.767Z,23.78
2023-05-16T04:27:59.773Z,23.77
2023-05-16T04:29:00.360Z,23.76
2023-05-16T04:29:59.787Z,23.76
2023-05-16T04:30:59.825Z,23.76
2023-05-16T04:31:59.853Z,23.75
2023-05-16T04:32:59.839Z,23.74
2023-05-16T04:33:59.752Z,23.73
2023-05-16T04:34:59.754Z,23.72
2023-05-16T04:35:59.821Z,23.72
2023-05-16T04:36:59.831Z,23.72
2023-05-16T04:37:59.854Z,23.72
2023-05-16T04:38:59.838Z,23.71
2023-05-16T04:39:59.859Z,23.72
2023-05-16T04:40:59.900Z,23.71
2023-05-16T04:41:59.866Z,23.72
2023-05-16T04:42:59.877Z,23.72
2023-05-16T04:43:59.892Z,23.72
2023-05-16T04:44:59.828Z,23.72
2023-05-16T04:45:59.916Z,23.73
2023-05-16T04:46:59.857Z,23.73
2023-05-16T04:47:59.929Z,23.73
2023-05-16T04:48:59.854Z,23.74
2023-05-16T04:49:59.882Z,23.74
2023-05-16T04:50:59.895Z,23.73
2023-05-16T04:51:59.880Z,23.73
2023-05-16T04:52:59.846Z,23.74
2023-05-16T04:53:59.861Z,23.75
2023-05-16T04:54:59.838Z,23.74
2023-05-16T04:55:59.870Z,23.74
2023-05-16T04:56:59.868Z,23.75
2023-05-16T04:57:59.816Z,23.74
2023-05-16T04:58:59.848Z,23.74
2023-05-16T04:59:59.832Z,23.75
2023-05-16T05:01:01.910Z,23.75
2023-05-16T05:01:59.907Z,23.74
2023-05-16T05:02:59.873Z,23.74
2023-05-16T05:03:59.867Z,23.74
2023-05-16T05:04:59.849Z,23.74
2023-05-16T05:05:59.924Z,23.74
2023-05-16T05:06:59.888Z,23.74
2023-05-16T05:07:59.891Z,23.73
2023-05-16T05:08:59.857Z,23.73
2023-05-16T05:09:59.845Z,23.73
2023-05-16T05:10:59.862Z,23.72
2023-05-16T05:11:59.890Z,23.70
2023-05-16T05:12:59.854Z,23.70
2023-05-16T05:13:59.858Z,23.68
2023-05-16T05:14:59.918Z,23.66
2023-05-16T05:15:59.909Z,23.66
2023-05-16T05:16:59.922Z,23.65
2023-05-16T05:18:00.038Z,23.63
2023-05-16T05:19:00.023Z,23.61
2023-05-16T05:20:01.779Z,23.55
2023-05-16T05:20:59.987Z,23.52
2023-05-16T05:21:59.958Z,23.48
2023-05-16T05:22:59.950Z,23.43
2023-05-16T05:23:59.945Z,23.40
2023-05-16T05:24:59.960Z,23.38
2023-05-16T05:25:59.964Z,23.39
2023-05-16T05:26:59.978Z,23.39
2023-05-16T05:27:59.904Z,23.39
2023-05-16T05:29:05.366Z,23.40
2023-05-16T05:30:00.937Z,23.38
2023-05-16T05:30:59.949Z,23.39
2023-05-16T05:31:59.976Z,23.38
2023-05-16T05:32:59.958Z,23.39
2023-05-16T05:33:59.918Z,23.42
2023-05-16T05:35:00.181Z,23.44
2023-05-16T05:36:01.442Z,23.42
2023-05-16T05:36:59.856Z,23.39
2023-05-16T05:37:59.894Z,23.36
2023-05-16T05:38:59.845Z,23.35
2023-05-16T05:39:59.920Z,23.35
2023-05-16T05:40:59.815Z,23.35
2023-05-16T05:41:59.873Z,23.35
2023-05-16T05:42:59.852Z,23.35
2023-05-16T05:43:59.837Z,23.34
2023-05-16T05:44:59.832Z,23.32
2023-05-16T05:45:59.863Z,23.29
2023-05-16T05:46:59.825Z,23.30
2023-05-16T05:47:59.935Z,23.32
2023-05-16T05:48:59.815Z,23.34
2023-05-16T05:49:59.823Z,23.37
2023-05-16T05:50:59.791Z,23.40
2023-05-16T05:51:59.749Z,23.44
2023-05-16T05:52:59.790Z,23.48
2023-05-16T05:53:59.806Z,23.51
2023-05-16T05:54:59.745Z,23.54
2023-05-16T05:55:59.761Z,23.58
2023-05-16T05:56:59.771Z,23.61
2023-05-16T05:57:59.750Z,23.66
2023-05-16T05:58:59.712Z,23.69
2023-05-16T05:59:59.750Z,23.73
2023-05-16T06:00:59.705Z,23.75
2023-05-16T06:01:59.732Z,23.77
2023-05-16T06:02:59.774Z,23.80
2023-05-16T06:04:01.972Z,23.83
2023-05-16T06:04:59.844Z,23.85
2023-05-16T06:05:59.865Z,23.88
2023-05-16T06:06:59.794Z,23.90
2023-05-16T06:07:59.793Z,23.93
2023-05-16T06:08:59.853Z,23.96
2023-05-16T06:09:59.856Z,23.97
2023-05-16T06:10:59.865Z,23.98
2023-05-16T06:11:59.918Z,23.99
2023-05-16T06:12:59.988Z,24.00
2023-05-16T06:14:00.037Z,24.03
2023-05-16T06:14:59.993Z,24.04
2023-05-16T06:16:00.660Z,24.06
2023-05-16T06:17:00.067Z,24.08
2023-05-16T06:18:00.117Z,24.08
2023-05-16T06:19:00.075Z,24.10
2023-05-16T06:20:00.031Z,24.11
2023-05-16T06:21:00.062Z,24.12
2023-05-16T06:22:00.138Z,24.12
2023-05-16T06:23:00.156Z,24.13
2023-05-16T06:24:00.216Z,24.15
2023-05-16T06:25:00.299Z,24.17
2023-05-16T06:26:00.347Z,24.18
2023-05-16T06:27:00.308Z,24.21
2023-05-16T06:28:00.358Z,24.24
2023-05-16T06:29:00.414Z,24.25
2023-05-16T06:30:00.427Z,24.28
2023-05-16T06:31:00.525Z,24.29
2023-05-16T06:32:00.642Z,24.29
2023-05-16T06:33:00.662Z,24.26
2023-05-16T06:34:00.610Z,24.23
2023-05-16T06:35:00.731Z,24.18
2023-05-16T06:36:00.760Z,24.14
2023-05-16T06:37:00.838Z,24.11
2023-05-16T06:38:01.170Z,24.08
2023-05-16T06:39:00.948Z,24.04
2023-05-16T06:40:00.925Z,23.98
2023-05-16T06:41:01.128Z,23.91
2023-05-16T06:42:00.898Z,23.85
2023-05-16T06:43:00.910Z,23.85
2023-05-16T06:44:00.940Z,23.86
2023-05-16T06:45:00.887Z,23.87
2023-05-16T06:46:00.993Z,23.88
2023-05-16T06:47:00.903Z,23.90
2023-05-16T06:48:00.927Z,23.93
2023-05-16T06:49:00.927Z,23.99
2023-05-16T06:50:01.030Z,24.03
2023-05-16T06:51:01.109Z,24.05
2023-05-16T06:52:01.158Z,24.08
2023-05-16T06:53:01.138Z,24.10
2023-05-16T06:54:03.988Z,24.13
2023-05-16T06:55:01.211Z,24.15
2023-05-16T06:56:01.205Z,24.18
2023-05-16T06:57:01.201Z,24.21
2023-05-16T06:58:01.187Z,24.25
2023-05-16T06:59:01.272Z,24.27
2023-05-16T07:00:01.651Z,24.29
2023-05-16T07:01:02.160Z,24.31
2023-05-16T07:02:01.176Z,24.33
2023-05-16T07:03:01.364Z,24.34
2023-05-16T07:04:01.402Z,24.35
2023-05-16T07:05:01.152Z,24.36
2023-05-16T07:06:01.144Z,24.38
2023-05-16T07:07:01.138Z,24.40
2023-05-16T07:08:01.145Z,24.41
2023-05-16T07:09:01.192Z,24.42
2023-05-16T07:10:01.123Z,24.43
2023-05-16T07:11:01.129Z,24.45
2023-05-16T07:12:01.115Z,24.46
2023-05-16T07:13:01.108Z,24.47
2023-05-16T07:14:01.090Z,24.49
2023-05-16T07:15:01.097Z,24.51
2023-05-16T07:16:01.151Z,24.52
2023-05-16T07:17:01.221Z,24.53
2023-05-16T07:18:01.173Z,24.54
2023-05-16T07:19:01.057Z,24.56
2023-05-16T07:20:02.965Z,24.57
2023-05-16T07:21:01.063Z,24.59
2023-05-16T07:22:01.039Z,24.59
2023-05-16T07:23:01.009Z,24.59
2023-05-16T07:24:01.181Z,24.60
2023-05-16T07:25:01.207Z,24.60
2023-05-16T07:26:01.025Z,24.60
2023-05-16T07:27:01.013Z,24.59
2023-05-16T07:28:01.048Z,24.60
2023-05-16T07:29:00.996Z,24.62
2023-05-16T07:30:00.953Z,24.61
2023-05-16T07:31:00.962Z,24.59
2023-05-16T07:32:01.025Z,24.60
2023-05-16T07:33:01.035Z,24.61
2023-05-16T07:34:00.946Z,24.61
2023-05-16T07:35:00.928Z,24.62
2023-05-16T07:36:12.058Z,24.64
2023-05-16T07:37:02.010Z,24.66
2023-05-16T07:38:00.940Z,24.67
2023-05-16T07:39:01.096Z,24.67
2023-05-16T07:40:00.887Z,24.66
2023-05-16T07:41:00.912Z,24.68
2023-05-16T07:42:00.875Z,24.70
2023-05-16T07:43:00.910Z,24.72
2023-05-16T07:44:00.983Z,24.72
2023-05-16T07:45:00.871Z,24.71
2023-05-16T07:46:00.937Z,24.71
2023-05-16T07:47:00.927Z,24.72
2023-05-16T07:48:00.927Z,24.73
2023-05-16T07:49:00.918Z,24.72
2023-05-16T07:50:00.898Z,24.74
2023-05-16T07:51:00.856Z,24.74
2023-05-16T07:52:00.792Z,24.76
2023-05-16T07:53:00.838Z,24.77
2023-05-16T07:54:00.846Z,24.78
2023-05-16T07:55:00.877Z,24.78
2023-05-16T07:56:00.887Z,24.78
2023-05-16T07:57:00.916Z,24.78
2023-05-16T07:58:00.944Z,24.79
2023-05-16T07:59:01.061Z,24.79
2023-05-16T08:00:01.028Z,24.80
2023-05-16T08:01:01.056Z,24.82
2023-05-16T08:02:01.090Z,24.84
2023-05-16T08:03:01.182Z,24.86
2023-05-16T08:04:02.245Z,24.86
2023-05-16T08:05:01.153Z,24.87
2023-05-16T08:06:01.157Z,24.88
2023-05-16T08:07:01.200Z,24.88
2023-05-16T08:08:01.220Z,24.89
2023-05-16T08:09:01.208Z,24.89
2023-05-16T08:10:01.212Z,24.91
2023-05-16T08:11:01.232Z,24.92
2023-05-16T08:12:01.223Z,24.93
2023-05-16T08:13:01.242Z,24.94
2023-05-16T08:14:01.274Z,24.94
2023-05-16T08:15:01.263Z,24.94
2023-05-16T08:16:01.344Z,24.93
2023-05-16T08:17:01.311Z,24.95
2023-05-16T08:18:01.373Z,24.95
2023-05-16T08:19:01.411Z,24.96
2023-05-16T08:20:01.377Z,24.98
2023-05-16T08:21:01.388Z,25.00
2023-05-16T08:22:01.586Z,25.02
2023-05-16T08:23:01.421Z,25.02
2023-05-16T08:24:01.443Z,25.03
2023-05-16T08:25:01.408Z,25.00
2023-05-16T08:26:01.410Z,24.99
2023-05-16T08:27:01.409Z,24.99
2023-05-16T08:28:01.431Z,24.94
2023-05-16T08:29:01.473Z,24.87
2023-05-16T08:30:01.528Z,24.79
2023-05-16T08:31:01.543Z,24.71
2023-05-16T08:32:01.690Z,24.65
2023-05-16T08:33:01.804Z,24.61
2023-05-16T08:34:01.675Z,24.57
2023-05-16T08:35:01.666Z,24.51
2023-05-16T08:36:01.748Z,24.44
2023-05-16T08:37:01.850Z,24.36
2023-05-16T08:38:01.917Z,24.27
2023-05-16T08:39:02.108Z,24.22
2023-05-16T08:40:01.868Z,24.16
2023-05-16T08:41:01.980Z,24.10
2023-05-16T08:42:01.947Z,24.09
2023-05-16T08:43:01.960Z,24.08
2023-05-16T08:44:01.959Z,24.09
2023-05-16T08:45:01.940Z,24.12
2023-05-16T08:46:01.964Z,24.16
2023-05-16T08:47:01.982Z,24.21
2023-05-16T08:48:02.023Z,24.25
2023-05-16T08:49:01.950Z,24.31
2023-05-16T08:50:02.013Z,24.38
2023-05-16T08:51:01.996Z,24.43
2023-05-16T08:52:02.095Z,24.49
2023-05-16T08:53:02.121Z,24.55
2023-05-16T08:54:02.183Z,24.62
2023-05-16T08:56:02.238Z,24.71
2023-05-16T08:57:02.267Z,24.76
2023-05-16T08:58:02.221Z,24.80
2023-05-16T08:59:02.200Z,24.85
2023-05-16T09:00:02.664Z,24.89
2023-05-16T09:01:02.243Z,24.94
2023-05-16T09:02:02.171Z,24.98
2023-05-16T09:03:02.326Z,25.01
2023-05-16T09:04:02.247Z,25.04
2023-05-16T09:05:02.162Z,25.07
2023-05-16T09:06:02.142Z,25.10
2023-05-16T09:07:02.197Z,25.10
2023-05-16T09:08:02.177Z,25.12
2023-05-16T09:09:02.176Z,25.14
2023-05-16T09:10:02.142Z,25.16
2023-05-16T09:11:02.136Z,25.15
2023-05-16T09:12:02.127Z,25.15
2023-05-16T09:13:02.078Z,25.15
2023-05-16T09:14:02.109Z,25.14
2023-05-16T09:15:02.173Z,25.13
2023-05-16T09:16:02.098Z,25.12
2023-05-16T09:17:02.150Z,25.08
2023-05-16T09:18:02.212Z,25.05
2023-05-16T09:19:02.259Z,25.04
2023-05-16T09:20:02.090Z,25.06
2023-05-16T09:21:02.090Z,25.06
2023-05-16T09:22:02.110Z,25.07
2023-05-16T09:23:02.043Z,25.07
2023-05-16T09:24:02.057Z,25.09
2023-05-16T09:25:02.074Z,25.09
2023-05-16T09:26:02.026Z,25.10
2023-05-16T09:27:01.998Z,25.09
2023-05-16T09:28:03.405Z,25.09
2023-05-16T09:29:02.045Z,25.10
2023-05-16T09:30:01.985Z,25.12
2023-05-16T09:31:02.112Z,25.08
2023-05-16T09:32:01.977Z,25.05
2023-05-16T09:33:02.125Z,25.05
2023-05-16T09:34:01.986Z,25.06
2023-05-16T09:35:01.950Z,25.06
2023-05-16T09:36:01.998Z,25.07
2023-05-16T09:37:02.225Z,25.06
2023-05-16T09:38:02.009Z,25.04
2023-05-16T09:39:01.969Z,25.02
2023-05-16T09:40:02.033Z,25.00
2023-05-16T09:41:01.936Z,24.98
2023-05-16T09:42:02.039Z,24.96
2023-05-16T09:43:01.974Z,24.94
2023-05-16T09:44:01.951Z,24.91
2023-05-16T09:45:02.030Z,24.88
2023-05-16T09:46:02.086Z,24.85
2023-05-16T09:47:01.914Z,24.83
2023-05-16T09:48:01.949Z,24.80
2023-05-16T09:49:02.003Z,24.78
2023-05-16T09:50:01.891Z,24.77
2023-05-16T09:51:02.558Z,24.74
2023-05-16T09:52:01.913Z,24.72
2023-05-16T09:53:01.865Z,24.72
2023-05-16T09:54:01.833Z,24.71
2023-05-16T09:55:01.837Z,24.70
2023-05-16T09:56:02.287Z,24.68
2023-05-16T09:57:03.174Z,24.66
2023-05-16T09:58:01.868Z,24.66
2023-05-16T09:59:01.945Z,24.65
2023-05-16T10:00:01.977Z,24.64
2023-05-16T10:01:02.014Z,24.64
2023-05-16T10:02:01.953Z,24.63
2023-05-16T10:03:04.815Z,24.63
2023-05-16T10:04:02.108Z,24.62
2023-05-16T10:05:03.648Z,24.61
2023-05-16T10:06:01.986Z,24.61
2023-05-16T10:07:01.981Z,24.61
2023-05-16T10:08:01.916Z,24.59
2023-05-16T10:09:03.150Z,24.60
2023-05-16T10:10:01.956Z,24.57
2023-05-16T10:11:01.921Z,24.57
2023-05-16T10:12:01.942Z,24.54
2023-05-16T10:13:01.953Z,24.53
2023-05-16T10:14:01.942Z,24.52
2023-05-16T10:15:01.956Z,24.53
2023-05-16T10:16:02.043Z,24.52
2023-05-16T10:17:01.883Z,24.52
2023-05-16T10:18:02.213Z,24.53
2023-05-16T10:19:01.957Z,24.53
2023-05-16T10:20:01.841Z,24.53
2023-05-16T10:21:01.837Z,24.54
2023-05-16T10:22:01.892Z,24.55
2023-05-16T10:23:01.837Z,24.54
2023-05-16T10:24:01.922Z,24.54
2023-05-16T10:25:01.932Z,24.54
2023-05-16T10:26:01.965Z,24.55
2023-05-16T10:27:02.020Z,24.55
2023-05-16T10:28:02.081Z,24.54
2023-05-16T10:29:02.068Z,24.56
2023-05-16T10:30:02.628Z,24.55
2023-05-16T10:31:02.165Z,24.56
2023-05-16T10:32:02.238Z,24.55
2023-05-16T10:33:02.367Z,24.55
2023-05-16T10:34:02.306Z,24.55
2023-05-16T10:35:02.278Z,24.54
2023-05-16T10:36:02.339Z,24.55
2023-05-16T10:37:02.428Z,24.55
2023-05-16T10:38:02.461Z,24.54
2023-05-16T10:39:02.542Z,24.54
2023-05-16T10:40:02.573Z,24.54
2023-05-16T10:41:02.761Z,24.54
2023-05-16T10:42:02.633Z,24.53
2023-05-16T10:43:02.783Z,24.54
2023-05-16T10:44:02.763Z,24.54
2023-05-16T10:45:06.026Z,24.53
2023-05-16T10:46:02.822Z,24.53
2023-05-16T10:47:02.774Z,24.53
2023-05-16T10:48:02.822Z,24.53
2023-05-16T10:49:02.754Z,24.54
2023-05-16T10:50:02.760Z,24.53
2023-05-16T10:51:02.696Z,24.54
2023-05-16T10:52:02.702Z,24.54
2023-05-16T10:53:02.716Z,24.53
2023-05-16T10:54:02.877Z,24.54
2023-05-16T10:55:02.730Z,24.54
2023-05-16T10:56:02.667Z,24.55
2023-05-16T10:57:02.689Z,24.54
2023-05-16T10:58:02.658Z,24.55
2023-05-16T10:59:02.672Z,24.55
2023-05-16T11:00:02.664Z,24.55
2023-05-16T11:01:02.655Z,24.55
2023-05-16T11:02:02.694Z,24.55
2023-05-16T11:03:02.764Z,24.54
2023-05-16T11:04:02.889Z,24.54
2023-05-16T11:05:02.645Z,24.54
2023-05-16T11:06:02.630Z,24.55
2023-05-16T11:07:02.603Z,24.54
2023-05-16T11:08:02.601Z,24.54
2023-05-16T11:09:02.618Z,24.53
2023-05-16T11:10:02.588Z,24.53
2023-05-16T11:11:02.585Z,24.53
2023-05-16T11:12:02.574Z,24.53
2023-05-16T11:13:02.547Z,24.53
2023-05-16T11:14:02.541Z,24.53
2023-05-16T11:15:02.925Z,24.53
2023-05-16T11:16:02.568Z,24.54
2023-05-16T11:17:02.592Z,24.55
2023-05-16T11:18:02.792Z,24.55
2023-05-16T11:19:02.812Z,24.55
2023-05-16T11:20:02.560Z,24.56
2023-05-16T11:21:02.505Z,24.57
2023-05-16T11:22:02.499Z,24.57
2023-05-16T11:23:02.836Z,24.58
2023-05-16T11:24:03.027Z,24.59
2023-05-16T11:25:02.491Z,24.59
2023-05-16T11:26:02.488Z,24.60
2023-05-16T11:27:02.516Z,24.62
2023-05-16T11:28:02.603Z,24.63
2023-05-16T11:29:02.462Z,24.64
2023-05-16T11:30:03.991Z,24.64
2023-05-16T11:31:02.644Z,24.65
2023-05-16T11:32:02.694Z,24.65
2023-05-16T11:33:02.812Z,24.66
2023-05-16T11:34:02.721Z,24.67
2023-05-16T11:35:02.755Z,24.67
2023-05-16T11:36:14.455Z,24.68
2023-05-16T11:37:03.806Z,24.67
2023-05-16T11:38:02.759Z,24.68
2023-05-16T11:39:02.797Z,24.68
2023-05-16T11:40:02.879Z,24.68
2023-05-16T11:41:02.737Z,24.68
2023-05-16T11:42:02.758Z,24.68
2023-05-16T11:43:03.515Z,24.68
2023-05-16T11:44:02.692Z,24.67
2023-05-16T11:45:02.699Z,24.66
2023-05-16T11:46:02.699Z,24.66
2023-05-16T11:47:02.838Z,24.64
2023-05-16T11:48:02.740Z,24.64
2023-05-16T11:49:02.687Z,24.64
2023-05-16T11:50:02.750Z,24.63
2023-05-16T11:51:02.787Z,24.63
2023-05-16T11:52:02.814Z,24.63
2023-05-16T11:53:02.871Z,24.63
2023-05-16T11:54:02.938Z,24.62
2023-05-16T11:55:02.971Z,24.61
2023-05-16T11:56:03.020Z,24.61
2023-05-16T11:57:03.024Z,24.60
2023-05-16T11:58:03.062Z,24.61
2023-05-16T11:59:03.074Z,24.61
2023-05-16T12:00:03.151Z,24.59
2023-05-16T12:01:03.137Z,24.59
2023-05-16T12:02:03.205Z,24.58
2023-05-16T12:03:03.287Z,24.57
2023-05-16T12:04:03.352Z,24.57
2023-05-16T12:05:03.315Z,24.57
2023-05-16T12:06:03.334Z,24.55
2023-05-16T12:07:03.365Z,24.54
2023-05-16T12:08:03.438Z,24.54
2023-05-16T12:09:03.462Z,24.54
2023-05-16T12:10:03.522Z,24.53
2023-05-16T12:11:03.487Z,24.53
2023-05-16T12:12:03.535Z,24.52
2023-05-16T12:13:03.666Z,24.51
2023-05-16T12:14:03.613Z,24.51
2023-05-16T12:15:03.646Z,24.51
2023-05-16T12:16:03.712Z,24.51
2023-05-16T12:17:03.926Z,24.51
2023-05-16T12:18:03.816Z,24.50
2023-05-16T12:19:03.899Z,24.50
2023-05-16T12:20:03.898Z,24.50
2023-05-16T12:21:03.945Z,24.50
2023-05-16T12:22:03.999Z,24.50
2023-05-16T12:23:04.078Z,24.51
2023-05-16T12:24:04.101Z,24.50
2023-05-16T12:25:04.214Z,24.50
2023-05-16T12:26:04.207Z,24.51
2023-05-16T12:27:04.298Z,24.51
2023-05-16T12:28:04.361Z,24.52
2023-05-16T12:29:04.374Z,24.52
2023-05-16T12:30:04.436Z,24.53
2023-05-16T12:31:04.517Z,24.53
2023-05-16T12:32:04.569Z,24.54
2023-05-16T12:33:06.995Z,24.54
2023-05-16T12:34:04.588Z,24.55
2023-05-16T12:35:04.613Z,24.55
2023-05-16T12:36:04.554Z,24.55
2023-05-16T12:37:04.569Z,24.55
2023-05-16T12:38:04.540Z,24.55
2023-05-16T12:39:04.559Z,24.56
2023-05-16T12:40:04.527Z,24.56
2023-05-16T12:41:04.534Z,24.56
2023-05-16T12:42:04.490Z,24.56
2023-05-16T12:43:04.559Z,24.56
2023-05-16T12:44:04.556Z,24.56
2023-05-16T12:45:04.493Z,24.55
2023-05-16T12:46:04.540Z,24.55
2023-05-16T12:47:04.481Z,24.55
2023-05-16T12:48:04.499Z,24.55
2023-05-16T12:49:04.491Z,24.55
2023-05-16T12:50:04.435Z,24.56
2023-05-16T12:51:04.410Z,24.56
2023-05-16T12:52:04.419Z,24.56
2023-05-16T12:53:04.415Z,24.56
2023-05-16T12:54:10.076Z,24.55